createdAt,value
2019-03-27T00:04:34.682Z,11.47
2019-03-27T00:07:06.929Z,12.60
2019-03-27T00:09:36.779Z,12.37
2019-03-27T00:12:07.005Z,11.27
2019-03-27T00:14:37.387Z,12.73
2019-03-27T00:17:07.358Z,10.87
2019-03-27T00:19:37.469Z,11.50
2019-03-27T00:22:07.179Z,12.40
2019-03-27T00:24:36.670Z,10.97
2019-03-27T00:27:06.172Z,12.00
2019-03-27T00:29:40.296Z,11.77
2019-03-27T00:32:09.574Z,12.50
2019-03-27T00:34:39.212Z,11.73
2019-03-27T00:37:12.309Z,12.67
2019-03-27T00:39:42.354Z,12.57
2019-03-27T00:42:12.990Z,12.97
2019-03-27T00:44:44.027Z,11.97
2019-03-27T00:47:13.897Z,13.17
2019-03-27T00:49:43.444Z,12.57
2019-03-27T00:52:15.103Z,15.40
2019-03-27T00:54:48.235Z,14.30
2019-03-27T00:57:18.309Z,14.00
2019-03-27T00:59:48.052Z,16.77
2019-03-27T01:02:17.716Z,13.30
2019-03-27T01:04:47.210Z,15.17
2019-03-27T01:07:16.709Z,16.37
2019-03-27T01:09:45.998Z,14.33
2019-03-27T01:12:15.311Z,16.83
2019-03-27T01:14:45.136Z,15.57
2019-03-27T01:17:14.421Z,13.60
2019-03-27T01:19:43.985Z,14.40
2019-03-27T01:22:13.549Z,13.50
2019-03-27T01:24:45.917Z,17.03
2019-03-27T01:27:15.410Z,16.80
2019-03-27T01:29:45.238Z,15.37
2019-03-27T01:32:15.831Z,16.93
2019-03-27T01:34:45.354Z,15.07
2019-03-27T01:37:14.582Z,15.30
2019-03-27T01:39:44.190Z,17.63
2019-03-27T01:42:13.683Z,16.00
2019-03-27T01:44:42.876Z,15.47
2019-03-27T01:47:12.485Z,17.10
2019-03-27T01:49:41.829Z,16.90
2019-03-27T01:52:11.412Z,15.67
2019-03-27T01:54:40.797Z,14.50
2019-03-27T01:57:10.310Z,15.83
2019-03-27T01:59:39.626Z,16.07
2019-03-27T02:02:09.158Z,14.43
2019-03-27T02:04:38.382Z,15.30
2019-03-27T02:07:07.867Z,16.50
2019-03-27T02:09:37.676Z,18.27
2019-03-27T02:12:07.504Z,15.30
2019-03-27T02:14:37.253Z,15.63
2019-03-27T02:17:06.709Z,16.57
2019-03-27T02:19:36.785Z,15.47
2019-03-27T02:22:07.607Z,17.03
2019-03-27T02:24:38.062Z,16.97
2019-03-27T02:27:07.632Z,15.87
2019-03-27T02:29:37.296Z,17.83
2019-03-27T02:32:06.927Z,16.73
2019-03-27T02:34:36.758Z,16.83
2019-03-27T02:37:06.644Z,18.80
2019-03-27T02:39:36.021Z,17.47
2019-03-27T02:42:05.258Z,20.50
2019-03-27T02:44:34.470Z,18.80
2019-03-27T02:47:04.633Z,20.80
2019-03-27T02:49:34.575Z,19.60
2019-03-27T02:52:04.270Z,19.03
2019-03-27T02:54:33.601Z,20.70
2019-03-27T02:57:03.659Z,20.47
2019-03-27T02:59:33.205Z,18.40
2019-03-27T03:02:05.399Z,19.00
2019-03-27T03:04:35.209Z,21.43
2019-03-27T03:07:04.752Z,20.23
2019-03-27T03:09:34.029Z,20.80
2019-03-27T03:12:11.124Z,21.90
2019-03-27T03:14:41.223Z,24.20
2019-03-27T03:17:10.649Z,22.27
2019-03-27T03:19:40.164Z,21.93
2019-03-27T03:22:09.430Z,22.27
2019-03-27T03:24:38.923Z,21.53
2019-03-27T03:27:08.250Z,23.60
2019-03-27T03:29:37.482Z,21.33
2019-03-27T03:32:07.026Z,21.60
2019-03-27T03:34:36.677Z,24.13
2019-03-27T03:37:06.555Z,22.97
2019-03-27T03:39:35.769Z,21.90
2019-03-27T03:42:05.010Z,21.80
2019-03-27T03:44:34.503Z,22.63
2019-03-27T03:47:04.087Z,22.37
2019-03-27T03:49:34.238Z,22.23
2019-03-27T03:52:04.123Z,22.13
2019-03-27T03:54:33.382Z,23.40
2019-03-27T03:57:03.480Z,22.60
2019-03-27T03:59:33.941Z,22.03
2019-03-27T04:02:03.793Z,23.27
2019-03-27T04:04:33.843Z,23.60
2019-03-27T04:07:03.789Z,21.30
2019-03-27T04:09:32.992Z,23.83
2019-03-27T04:12:02.735Z,26.67
2019-03-27T04:14:31.928Z,23.40
2019-03-27T04:17:16.127Z,22.87
2019-03-27T04:19:33.264Z,22.37
2019-03-27T04:22:03.532Z,22.10
2019-03-27T04:24:33.084Z,24.80
2019-03-27T04:27:02.611Z,23.30
2019-03-27T04:29:31.873Z,24.40
2019-03-27T04:32:01.071Z,25.60
2019-03-27T04:34:30.293Z,23.80
2019-03-27T04:37:00.477Z,27.50
2019-03-27T04:39:30.209Z,26.00
2019-03-27T04:41:59.702Z,25.57
2019-03-27T04:44:29.130Z,24.90
2019-03-27T04:46:58.673Z,24.00
2019-03-27T04:49:27.868Z,26.87
2019-03-27T04:51:59.840Z,26.57
2019-03-27T04:54:29.699Z,25.37
2019-03-27T04:56:59.583Z,28.40
2019-03-27T04:59:28.810Z,29.13
2019-03-27T05:01:58.654Z,25.53
2019-03-27T05:04:29.243Z,26.87
2019-03-27T05:06:58.519Z,28.17
2019-03-27T05:09:28.861Z,26.07
2019-03-27T05:11:58.185Z,25.70
2019-03-27T05:14:27.507Z,27.63
2019-03-27T05:16:57.593Z,30.57
2019-03-27T05:19:27.513Z,28.27
2019-03-27T05:21:56.989Z,31.20
2019-03-27T05:24:27.112Z,28.33
2019-03-27T05:26:56.351Z,25.70
2019-03-27T05:29:26.653Z,29.53
2019-03-27T05:31:56.444Z,26.37
2019-03-27T05:34:29.507Z,26.30
2019-03-27T05:36:58.654Z,28.80
2019-03-27T05:39:28.310Z,28.10
2019-03-27T05:41:57.593Z,29.30
2019-03-27T05:44:28.354Z,27.07
2019-03-27T05:46:58.202Z,29.03
2019-03-27T05:49:27.855Z,28.13
2019-03-27T05:51:58.165Z,28.07
2019-03-27T05:54:28.770Z,28.73
2019-03-27T05:56:58.689Z,27.00
2019-03-27T05:59:28.038Z,29.50
2019-03-27T06:01:58.273Z,28.43
2019-03-27T06:04:28.414Z,28.53
2019-03-27T06:06:57.809Z,29.80
2019-03-27T06:09:28.181Z,29.53
2019-03-27T06:11:58.257Z,29.60
2019-03-27T06:14:27.912Z,29.67
2019-03-27T06:16:58.880Z,29.70
2019-03-27T06:19:28.199Z,30.30
2019-03-27T06:22:16.579Z,30.00
2019-03-27T06:24:47.664Z,30.07
2019-03-27T06:27:20.153Z,32.30
2019-03-27T06:29:49.575Z,27.90
2019-03-27T06:32:19.168Z,30.73
2019-03-27T06:34:51.634Z,29.97
2019-03-27T06:43:12.022Z,28.30
2019-03-27T06:45:43.400Z,29.97
2019-03-27T06:48:25.715Z,27.70
2019-03-27T06:50:46.084Z,31.87
2019-03-27T06:53:15.467Z,31.07
2019-03-27T06:55:44.845Z,30.10
2019-03-27T06:58:14.526Z,28.53
2019-03-27T07:00:52.782Z,29.70
2019-03-27T07:03:34.238Z,31.37
2019-03-27T07:06:09.317Z,29.30
2019-03-27T07:08:39.179Z,28.90
2019-03-27T07:11:11.551Z,31.43
2019-03-27T07:13:41.006Z,44.53
2019-03-27T07:16:10.542Z,31.60
2019-03-27T07:18:40.745Z,29.27
2019-03-27T07:21:10.717Z,30.60
2019-03-27T07:23:40.515Z,32.40
2019-03-27T07:26:11.045Z,27.80
2019-03-27T07:28:42.117Z,28.30
2019-03-27T07:31:17.835Z,28.30
2019-03-27T07:33:49.327Z,28.00
2019-03-27T07:36:22.942Z,26.80
2019-03-27T07:39:11.303Z,29.40
2019-03-27T07:41:55.797Z,31.57
2019-03-27T07:44:27.148Z,28.40
2019-03-27T07:46:57.422Z,30.60
2019-03-27T07:49:28.794Z,27.37
2019-03-27T07:51:58.585Z,27.47
2019-03-27T07:54:30.094Z,30.77
2019-03-27T07:57:00.254Z,29.70
2019-03-27T08:02:13.183Z,31.73
2019-03-27T08:04:43.124Z,30.67
2019-03-27T08:07:25.937Z,27.47
2019-03-27T08:09:43.972Z,30.60
2019-03-27T08:12:14.022Z,36.23
2019-03-27T08:14:47.769Z,27.90
2019-03-27T08:17:18.459Z,27.47
2019-03-27T08:19:48.875Z,27.47
2019-03-27T08:22:23.491Z,31.07
2019-03-27T08:24:54.045Z,28.37
2019-03-27T08:27:26.161Z,26.47
2019-03-27T08:29:56.166Z,27.93
2019-03-27T08:32:26.241Z,29.50
2019-03-27T08:34:56.820Z,28.40
2019-03-27T08:37:26.651Z,26.93
2019-03-27T08:39:59.721Z,26.43
2019-03-27T08:42:29.776Z,27.83
2019-03-27T08:47:53.259Z,29.23
2019-03-27T08:50:25.774Z,28.17
2019-03-27T08:52:57.894Z,27.87
2019-03-27T08:55:32.217Z,25.53
2019-03-27T14:00:59.808Z,10.70
2019-03-27T14:03:30.710Z,13.60
2019-03-27T14:06:01.570Z,11.40
2019-03-27T14:08:33.292Z,11.60
2019-03-27T14:11:02.541Z,12.30
2019-03-27T14:13:33.326Z,11.03
2019-03-27T14:16:02.894Z,11.23
2019-03-27T14:18:32.881Z,12.40
2019-03-27T14:21:04.001Z,10.77
2019-03-27T14:23:34.924Z,8.60
2019-03-27T14:26:05.616Z,9.90
2019-03-27T14:28:35.403Z,10.17
2019-03-27T14:31:04.708Z,11.27
2019-03-27T14:33:34.348Z,10.63
2019-03-27T14:36:03.945Z,10.00
2019-03-27T14:38:33.572Z,10.17
2019-03-27T14:41:03.553Z,9.90
2019-03-27T14:43:33.408Z,10.63
2019-03-27T14:46:03.331Z,8.43
2019-03-27T14:48:33.683Z,9.50
2019-03-27T14:51:06.466Z,9.30
2019-03-27T14:53:36.042Z,9.67
2019-03-27T14:56:05.881Z,8.97
2019-03-27T14:58:37.048Z,7.93
2019-03-27T15:01:06.892Z,7.80
2019-03-27T15:03:37.204Z,8.37
2019-03-27T15:06:07.186Z,7.40
2019-03-27T15:08:38.398Z,6.90
2019-03-27T15:11:08.094Z,8.57
2019-03-27T15:13:39.362Z,8.47
2019-03-27T15:16:35.158Z,8.30
2019-03-27T15:19:08.025Z,7.70
2019-03-27T15:21:37.805Z,8.37
2019-03-27T15:24:08.618Z,8.70
2019-03-27T15:26:38.613Z,7.23
2019-03-27T15:29:09.425Z,8.77
2019-03-27T15:31:41.430Z,8.50
2019-03-27T15:34:11.251Z,9.90
2019-03-27T15:36:40.276Z,8.20
2019-03-27T15:39:10.535Z,9.20
2019-03-27T15:41:40.069Z,9.13
2019-03-27T15:44:09.978Z,8.77
2019-03-27T15:46:39.337Z,7.13
2019-03-27T15:49:08.844Z,8.30
2019-03-27T15:51:38.296Z,8.90
2019-03-27T15:54:08.038Z,8.53
2019-03-27T15:56:38.675Z,7.80
2019-03-27T15:59:07.913Z,10.03
2019-03-27T16:01:37.400Z,7.90
2019-03-27T16:04:06.897Z,7.73
2019-03-27T16:06:37.174Z,7.83
2019-03-27T16:09:09.432Z,8.40
2019-03-27T16:11:40.131Z,7.87
2019-03-27T16:14:09.857Z,8.20
2019-03-27T16:16:39.569Z,7.93
2019-03-27T16:19:08.801Z,8.27
2019-03-27T16:21:38.007Z,8.27
2019-03-27T16:24:07.989Z,7.23
2019-03-27T16:26:37.557Z,9.77
2019-03-27T16:29:07.457Z,12.37
2019-03-27T16:31:37.089Z,9.40
2019-03-27T16:34:06.626Z,9.83
2019-03-27T16:36:36.439Z,9.77
2019-03-27T16:39:06.636Z,9.80
2019-03-27T16:41:36.225Z,9.40
2019-03-27T16:44:06.962Z,8.40
2019-03-27T16:46:36.238Z,9.00
2019-03-27T16:49:05.857Z,10.80
2019-03-27T16:51:35.464Z,12.07
2019-03-27T16:54:05.312Z,11.60
2019-03-27T16:56:34.629Z,9.10
2019-03-27T16:59:04.113Z,10.13
2019-03-27T17:01:34.250Z,11.50
2019-03-27T17:04:03.883Z,10.37
2019-03-27T17:06:33.985Z,11.20
2019-03-27T17:09:05.124Z,11.33
2019-03-27T17:11:34.787Z,10.43
2019-03-27T17:14:04.674Z,11.30
2019-03-27T17:16:33.862Z,9.40
2019-03-27T17:19:03.470Z,21.50
2019-03-27T17:21:32.769Z,12.30
2019-03-27T17:24:02.340Z,11.10
2019-03-27T17:26:31.602Z,10.73
2019-03-27T17:29:01.090Z,13.20
2019-03-27T17:31:30.627Z,14.33
2019-03-27T17:34:00.780Z,11.10
2019-03-27T17:36:30.384Z,12.40
2019-03-27T17:39:00.126Z,11.30
2019-03-27T17:41:29.685Z,11.67
2019-03-27T17:43:59.257Z,12.80
2019-03-27T17:46:29.097Z,12.07
2019-03-27T17:48:58.853Z,12.20
2019-03-27T17:51:29.437Z,11.80
2019-03-27T17:53:59.489Z,12.10
2019-03-27T17:56:28.964Z,13.13
2019-03-27T17:58:59.396Z,12.20
2019-03-27T18:01:29.305Z,11.73
2019-03-27T18:04:00.095Z,13.53
2019-03-27T18:06:29.436Z,12.30
2019-03-27T18:08:59.431Z,12.40
2019-03-27T18:11:29.322Z,13.57
2019-03-27T18:13:59.341Z,11.50
2019-03-27T18:16:28.802Z,13.50
2019-03-27T18:18:58.996Z,12.73
2019-03-27T18:21:28.627Z,12.03
2019-03-27T18:23:58.780Z,11.40
2019-03-27T18:26:28.181Z,12.23
2019-03-27T18:28:58.321Z,12.20
2019-03-27T18:31:27.912Z,13.03
2019-03-27T18:33:57.226Z,13.33
2019-03-27T18:36:29.055Z,12.10
2019-03-27T18:38:58.912Z,12.60
2019-03-27T18:41:29.133Z,11.87
2019-03-27T18:43:58.927Z,12.90
2019-03-27T18:46:29.065Z,12.07
2019-03-27T18:48:59.463Z,11.57
2019-03-27T18:51:29.154Z,11.73
2019-03-27T18:54:00.209Z,11.23
2019-03-27T18:56:30.049Z,15.67
2019-03-27T18:58:59.821Z,12.93
2019-03-27T19:01:29.828Z,11.27
2019-03-27T19:03:59.354Z,10.93
2019-03-27T19:06:29.879Z,10.60
2019-03-27T19:08:59.883Z,11.63
2019-03-27T19:11:29.774Z,11.20
2019-03-27T19:13:59.082Z,11.33
2019-03-27T19:16:28.587Z,10.90
2019-03-27T19:18:57.783Z,11.90
2019-03-27T19:21:27.756Z,11.57
2019-03-27T19:23:56.961Z,10.40
2019-03-27T19:26:26.535Z,12.20
2019-03-27T19:28:56.123Z,10.87
2019-03-27T19:31:26.299Z,12.17
2019-03-27T19:33:58.360Z,11.50
2019-03-27T19:36:27.843Z,11.30
2019-03-27T19:38:57.697Z,10.83
2019-03-27T19:41:27.837Z,12.10
2019-03-27T19:43:57.406Z,11.80
2019-03-27T19:46:26.954Z,13.00
2019-03-27T19:48:56.306Z,10.67
2019-03-27T19:51:26.475Z,12.30
2019-03-27T19:53:56.134Z,12.70
2019-03-27T19:56:25.662Z,12.77
2019-03-27T19:58:55.537Z,11.20
2019-03-27T20:01:24.763Z,11.90
2019-03-27T20:03:54.433Z,11.93
2019-03-27T20:06:24.117Z,11.70
2019-03-27T20:08:56.562Z,10.93
2019-03-27T20:11:24.591Z,10.63
2019-03-27T20:13:54.222Z,11.10
2019-03-27T20:16:24.172Z,11.37
2019-03-27T20:18:54.352Z,11.43
2019-03-27T20:21:23.818Z,9.17
2019-03-27T20:23:53.438Z,11.93
2019-03-27T20:26:22.705Z,11.90
2019-03-27T20:28:52.460Z,11.40
